Time;durP1;ratioP1;P1;durP2;ratioP2;P2;SDS_P1;SDS_P2;PMS_P1;PMS_P2;Temp;Humidity;BMP_temperature;BMP_pressure;BME280_temperature;BME280_humidity;BME280_pressure;Samples;Min_cycle;Max_cycle;Signal;HPM_P1;HPM_P2
2022/11/16 00:01:16;;;;;;;10.63;9.43;;;11.80;99.90;;;;;;5069271;28;20053;-80
2022/11/16 00:03:43;;;;;;;12.27;10.20;;;11.70;99.90;;;;;;5051317;28;20055;-82
2022/11/16 00:06:11;;;;;;;12.75;10.93;;;11.80;99.90;;;;;;5050574;28;20041;-82
2022/11/16 00:08:40;;;;;;;16.00;12.57;;;11.80;99.90;;;;;;5033827;28;20033;-83
2022/11/16 00:11:15;;;;;;;14.57;11.75;;;11.80;99.90;;;;;;5050558;28;20503;-78
2022/11/16 00:13:42;;;;;;;16.05;11.80;;;11.80;99.90;;;;;;5038780;28;20033;-81
2022/11/16 00:16:17;;;;;;;12.27;10.73;;;11.80;99.90;;;;;;5033683;28;20033;-79
2022/11/16 00:18:43;;;;;;;12.27;10.80;;;11.80;99.90;;;;;;5050473;28;20037;-80
2022/11/16 00:21:10;;;;;;;11.15;9.95;;;11.80;99.90;;;;;;5016663;28;20492;-82
2022/11/16 00:23:37;;;;;;;10.57;8.77;;;11.80;99.90;;;;;;5050369;28;20399;-83
2022/11/16 00:26:05;;;;;;;17.38;14.52;;;11.80;99.90;;;;;;5033488;28;20033;-80
2022/11/16 00:28:32;;;;;;;16.70;12.27;;;11.80;99.90;;;;;;5017664;28;20033;-82
2022/11/16 00:31:04;;;;;;;15.20;12.73;;;11.80;99.90;;;;;;5068041;28;20435;-80
2022/11/16 00:33:30;;;;;;;19.00;15.30;;;11.80;99.90;;;;;;5037970;28;20472;-80
2022/11/16 00:35:59;;;;;;;16.58;12.07;;;11.80;99.90;;;;;;5017709;28;20036;-80
2022/11/16 00:38:25;;;;;;;17.02;13.18;;;11.80;99.90;;;;;;5045679;28;20033;-80
2022/11/16 00:40:52;;;;;;;17.55;14.63;;;11.80;99.90;;;;;;5037273;28;20025;-82
2022/11/16 00:43:18;;;;;;;17.00;13.13;;;11.80;99.90;;;;;;5037696;28;20387;-81
2022/11/16 00:45:44;;;;;;;15.07;12.15;;;11.80;99.90;;;;;;5037703;28;20059;-82
2022/11/16 00:48:11;;;;;;;18.77;14.18;;;11.80;99.90;;;;;;5037621;28;20033;-81
2022/11/16 00:50:38;;;;;;;15.60;13.23;;;11.80;99.90;;;;;;5017362;28;20037;-82
2022/11/16 00:53:06;;;;;;;16.17;12.57;;;11.80;99.90;;;;;;5046058;28;20041;-83
2022/11/16 00:55:33;;;;;;;21.15;14.98;;;11.80;99.90;;;;;;5053585;28;20040;-82
2022/11/16 00:58:01;;;;;;;15.55;13.38;;;11.80;99.90;;;;;;5017466;28;20041;-82
2022/11/16 01:00:28;;;;;;;16.27;13.27;;;11.80;99.90;;;;;;5036760;28;20045;-81
2022/11/16 01:02:55;;;;;;;14.10;12.10;;;11.80;99.90;;;;;;5053692;28;20496;-82
2022/11/16 01:05:22;;;;;;;15.32;12.90;;;11.80;99.90;;;;;;5053408;28;20044;-79
2022/11/16 01:07:49;;;;;;;17.63;13.07;;;11.80;99.90;;;;;;5053653;28;20033;-80
2022/11/16 01:10:19;;;;;;;13.65;11.82;;;11.80;99.90;;;;;;5053742;28;20041;-81
2022/11/16 01:12:48;;;;;;;15.40;12.98;;;11.80;99.90;;;;;;5053441;28;20060;-82
2022/11/16 01:15:15;;;;;;;16.50;12.43;;;11.80;99.90;;;;;;5053652;28;20029;-82
2022/11/16 01:17:42;;;;;;;15.82;14.13;;;11.80;99.90;;;;;;5036686;28;20515;-82
2022/11/16 01:20:14;;;;;;;15.95;13.07;;;11.80;99.90;;;;;;5036850;28;20330;-81
2022/11/16 01:22:41;;;;;;;17.57;15.33;;;11.80;99.90;;;;;;5053223;28;20032;-81
2022/11/16 01:25:09;;;;;;;14.95;11.43;;;11.80;99.90;;;;;;5033414;28;20327;-81
2022/11/16 01:27:36;;;;;;;14.93;12.00;;;11.80;99.90;;;;;;5032262;28;20348;-80
2022/11/16 01:30:06;;;;;;;17.08;13.90;;;11.80;99.90;;;;;;5033174;28;20401;-81
2022/11/16 01:40:49;;;;;;;18.20;14.20;;;11.80;99.90;;;;;;5050157;28;20036;-82
2022/11/16 01:43:21;;;;;;;15.90;13.05;;;11.80;99.90;;;;;;5028600;28;20396;-81
2022/11/16 01:45:48;;;;;;;20.48;16.45;;;11.80;99.90;;;;;;5052854;28;20432;-80
2022/11/16 01:48:22;;;;;;;16.38;14.38;;;11.80;99.90;;;;;;5032826;28;20407;-80
2022/11/16 01:50:50;;;;;;;23.05;16.23;;;11.80;99.90;;;;;;5040166;28;20507;-79
2022/11/16 01:53:17;;;;;;;21.20;18.23;;;11.80;99.90;;;;;;5016926;28;20041;-80
2022/11/16 01:55:49;;;;;;;18.75;15.52;;;11.80;99.90;;;;;;5032883;28;20037;-80
2022/11/16 01:58:42;;;;;;;18.77;16.52;;;11.80;99.90;;;;;;5051521;28;20072;-78
2022/11/16 02:01:20;;;;;;;22.65;16.33;;;11.80;99.90;;;;;;5052666;28;20049;-81
2022/11/16 02:03:52;;;;;;;20.58;16.15;;;11.80;99.90;;;;;;5017583;28;20033;-79
2022/11/16 02:06:25;;;;;;;19.13;15.13;;;11.80;99.90;;;;;;5064089;28;20047;-80
2022/11/16 02:12:24;;;;;;;14.60;12.27;;;11.80;99.90;;;;;;5053466;28;20038;-80
2022/11/16 02:15:30;;;;;;;16.98;14.15;;;11.80;99.90;;;;;;5030601;28;20053;-79
2022/11/16 02:18:23;;;;;;;12.13;10.70;;;11.80;99.90;;;;;;5003697;28;20029;-80
2022/11/16 02:21:04;;;;;;;15.30;12.23;;;11.80;99.90;;;;;;5052623;28;20052;-79
2022/11/16 02:23:49;;;;;;;15.38;13.43;;;11.80;99.90;;;;;;5016035;28;20041;-80
2022/11/16 02:26:42;;;;;;;13.13;11.07;;;11.80;99.90;;;;;;5034577;28;20033;-78
2022/11/16 02:29:14;;;;;;;16.58;12.88;;;11.80;99.90;;;;;;5018653;28;20418;-78
2022/11/16 02:32:14;;;;;;;14.07;12.55;;;11.80;99.90;;;;;;5052569;28;20436;-79
2022/11/16 02:34:51;;;;;;;19.35;14.48;;;11.80;99.90;;;;;;5033902;28;20042;-79
2022/11/16 02:37:21;;;;;;;17.55;14.75;;;11.80;99.90;;;;;;5030749;28;20033;-80
2022/11/16 02:39:53;;;;;;;18.70;14.20;;;11.80;99.90;;;;;;5032010;28;20501;-78
2022/11/16 02:42:42;;;;;;;15.55;12.10;;;11.80;99.90;;;;;;5032990;28;20468;-78
2022/11/16 02:45:15;;;;;;;15.60;11.98;;;11.80;99.90;;;;;;5032301;28;20037;-80
2022/11/16 02:47:43;;;;;;;15.00;12.73;;;11.80;99.90;;;;;;5031756;28;20041;-80
2022/11/16 02:50:15;;;;;;;15.90;13.18;;;11.80;99.90;;;;;;5046146;28;20368;-79
2022/11/16 02:52:41;;;;;;;14.38;12.00;;;11.80;99.90;;;;;;5031944;28;20041;-80
2022/11/16 02:55:10;;;;;;;11.50;9.90;;;11.80;99.90;;;;;;5018067;28;20056;-79
2022/11/16 02:57:56;;;;;;;16.17;14.43;;;11.70;99.90;;;;;;5035299;28;20037;-78
2022/11/16 03:00:30;;;;;;;14.75;12.90;;;11.80;99.90;;;;;;5051323;28;20049;-79
2022/11/16 03:03:28;;;;;;;13.70;11.75;;;11.70;99.90;;;;;;5051453;28;20044;-80
2022/11/16 03:06:10;;;;;;;18.42;14.35;;;11.70;99.90;;;;;;5040114;28;20400;-80
2022/11/16 03:08:43;;;;;;;19.37;15.00;;;11.70;99.90;;;;;;5050999;28;20040;-79
2022/11/16 03:14:10;;;;;;;15.95;13.20;;;11.70;99.90;;;;;;5031454;28;20048;-79
2022/11/16 03:16:40;;;;;;;14.88;13.38;;;11.70;99.90;;;;;;5049932;28;20040;-79
2022/11/16 03:19:12;;;;;;;16.20;13.90;;;11.70;99.90;;;;;;5038774;28;20044;-79
2022/11/16 03:21:40;;;;;;;16.88;12.23;;;11.70;99.90;;;;;;5051020;28;20033;-79
2022/11/16 03:24:07;;;;;;;14.52;13.02;;;11.70;99.90;;;;;;5031418;28;20508;-79
2022/11/16 03:26:45;;;;;;;19.25;12.18;;;11.80;99.90;;;;;;5050785;28;20044;-80
2022/11/16 03:29:54;;;;;;;14.07;12.13;;;11.80;99.90;;;;;;5050933;28;20404;-79
2022/11/16 03:32:40;;;;;;;20.00;14.85;;;11.80;99.90;;;;;;5050935;28;20100;-83
2022/11/16 03:35:21;;;;;;;15.57;13.20;;;11.80;99.90;;;;;;5014807;28;20045;-80
2022/11/16 03:37:51;;;;;;;15.73;13.38;;;11.80;99.90;;;;;;5018088;28;20033;-79
2022/11/16 03:40:22;;;;;;;15.20;13.35;;;11.80;99.90;;;;;;5031868;28;20381;-81
2022/11/16 03:42:50;;;;;;;16.23;14.15;;;11.80;99.90;;;;;;5034710;28;20037;-80
2022/11/16 03:45:18;;;;;;;18.70;15.13;;;11.80;99.90;;;;;;5050819;28;20033;-78
2022/11/16 03:47:45;;;;;;;17.13;13.50;;;11.80;99.90;;;;;;5030891;28;20381;-80
2022/11/16 03:50:12;;;;;;;20.13;16.02;;;11.80;99.90;;;;;;5030163;28;20044;-80
2022/11/16 03:52:40;;;;;;;16.75;13.38;;;11.80;99.90;;;;;;5050701;28;20036;-80
2022/11/16 03:55:07;;;;;;;14.35;12.25;;;11.80;99.90;;;;;;5051665;28;20033;-80
2022/11/16 03:57:34;;;;;;;21.42;18.08;;;11.80;99.90;;;;;;5034528;28;20025;-79
2022/11/16 04:00:00;;;;;;;16.73;12.77;;;11.80;99.90;;;;;;5033646;28;20044;-78
2022/11/16 04:02:29;;;;;;;24.02;18.38;;;11.80;99.90;;;;;;5050064;28;20029;-77
2022/11/16 04:24:26;;;;;;;16.70;14.20;;;11.80;99.90;;;;;;5046168;28;20044;-78
2022/11/16 04:29:42;;;;;;;17.30;14.45;;;11.80;99.90;;;;;;5050257;28;20037;-79
2022/11/16 04:37:51;;;;;;;20.50;17.88;;;11.80;99.90;;;;;;5049307;28;20033;-78
2022/11/16 04:40:25;;;;;;;15.50;13.90;;;11.80;99.90;;;;;;5034105;28;20037;-78
2022/11/16 04:42:54;;;;;;;17.58;15.07;;;11.80;99.90;;;;;;5030247;28;20049;-78
2022/11/16 04:48:08;;;;;;;13.63;12.23;;;11.90;99.90;;;;;;5030286;28;20057;-79
2022/11/16 04:50:36;;;;;;;14.55;13.07;;;11.90;99.90;;;;;;5032177;28;20025;-78
2022/11/16 04:53:04;;;;;;;15.13;11.27;;;11.90;99.90;;;;;;5050055;28;20044;-78
2022/11/16 04:55:36;;;;;;;12.73;11.43;;;11.90;99.90;;;;;;5013951;28;20057;-78
2022/11/16 04:58:02;;;;;;;13.73;12.27;;;11.90;99.90;;;;;;5010264;28;20041;-78
2022/11/16 05:00:29;;;;;;;12.30;10.30;;;11.90;99.90;;;;;;5049667;28;20044;-78
2022/11/16 05:02:56;;;;;;;12.30;9.30;;;11.90;99.90;;;;;;5051099;28;20052;-78
2022/11/16 05:05:23;;;;;;;7.38;6.60;;;11.80;99.90;;;;;;5013612;28;20029;-78
2022/11/16 05:07:50;;;;;;;5.20;4.70;;;11.70;99.90;;;;;;5027496;28;20041;-78
2022/11/16 05:10:23;;;;;;;5.25;3.40;;;11.70;99.90;;;;;;5049751;28;20036;-77
2022/11/16 05:12:51;;;;;;;4.68;3.25;;;11.60;99.90;;;;;;5033327;28;20404;-77
2022/11/16 05:15:18;;;;;;;4.95;2.90;;;11.60;99.90;;;;;;5016358;28;20029;-80
2022/11/16 05:17:46;;;;;;;4.40;2.67;;;11.50;99.90;;;;;;5031623;28;20121;-79
2022/11/16 05:23:04;;;;;;;4.22;1.90;;;11.50;99.90;;;;;;5035988;28;20032;-78
2022/11/16 05:25:33;;;;;;;3.72;2.33;;;11.40;99.90;;;;;;5033696;28;20511;-78
2022/11/16 05:28:01;;;;;;;4.95;2.53;;;11.40;99.90;;;;;;5019801;28;20041;-79
2022/11/16 05:30:29;;;;;;;4.80;2.22;;;11.30;99.90;;;;;;5053443;28;20488;-78
2022/11/16 05:32:58;;;;;;;5.68;2.83;;;11.20;99.90;;;;;;5036990;28;20044;-78
2022/11/16 05:35:25;;;;;;;3.03;1.75;;;11.20;99.90;;;;;;5052970;28;20025;-77
2022/11/16 05:37:52;;;;;;;3.78;2.78;;;11.20;99.90;;;;;;5033162;28;20041;-77
2022/11/16 05:40:18;;;;;;;3.13;2.10;;;11.20;99.90;;;;;;5047498;28;20047;-77
2022/11/16 05:42:56;;;;;;;4.53;2.10;;;11.10;99.90;;;;;;5018150;28;20129;-78
2022/11/16 05:45:24;;;;;;;4.00;2.22;;;11.10;99.90;;;;;;5048766;28;20037;-77
2022/11/16 05:47:51;;;;;;;1.90;1.30;;;11.10;99.90;;;;;;5032884;28;20044;-77
2022/11/16 05:50:17;;;;;;;3.30;1.67;;;11.10;99.90;;;;;;5019056;28;20037;-79
2022/11/16 05:52:58;;;;;;;5.53;2.88;;;11.10;99.90;;;;;;5018422;28;20030;-77
2022/11/16 05:55:24;;;;;;;2.47;2.10;;;11.10;99.90;;;;;;5034371;28;20032;-77
2022/11/16 05:57:50;;;;;;;3.58;3.28;;;11.10;99.90;;;;;;5035967;28;20033;-78
2022/11/16 06:00:17;;;;;;;4.30;2.80;;;11.10;99.90;;;;;;5019119;28;20049;-78
2022/11/16 06:02:48;;;;;;;3.40;2.45;;;11.10;99.90;;;;;;5032591;28;20041;-78
2022/11/16 06:05:21;;;;;;;5.78;3.17;;;11.10;99.90;;;;;;5052615;28;20404;-78
2022/11/16 06:07:48;;;;;;;6.22;3.78;;;11.10;99.90;;;;;;5016208;28;20444;-77
2022/11/16 06:10:15;;;;;;;5.72;4.15;;;11.10;99.90;;;;;;5052357;28;20040;-78
2022/11/16 06:12:43;;;;;;;6.53;5.43;;;11.10;99.90;;;;;;5036161;28;20040;-78
2022/11/16 06:15:10;;;;;;;7.68;6.68;;;11.10;99.90;;;;;;5052345;28;20032;-78
2022/11/16 06:17:36;;;;;;;9.77;8.32;;;11.10;99.90;;;;;;5052423;28;20037;-75
2022/11/16 06:20:03;;;;;;;15.85;10.05;;;11.10;99.90;;;;;;5038968;28;20036;-76
2022/11/16 06:22:29;;;;;;;16.25;11.55;;;11.10;99.90;;;;;;5032199;28;20036;-78
2022/11/16 06:24:56;;;;;;;14.35;10.77;;;11.10;99.90;;;;;;5035376;28;20555;-77
2022/11/16 06:27:23;;;;;;;13.50;10.60;;;11.10;99.90;;;;;;5025891;28;20353;-77
2022/11/16 06:29:50;;;;;;;11.85;8.60;;;11.10;99.90;;;;;;5019299;28;20431;-78
2022/11/16 06:32:16;;;;;;;8.80;6.38;;;11.00;99.90;;;;;;5035186;28;20033;-78
2022/11/16 06:34:42;;;;;;;8.85;6.20;;;10.90;99.90;;;;;;5052072;28;20033;-78
2022/11/16 06:37:10;;;;;;;8.00;5.80;;;10.90;99.90;;;;;;5051843;28;20040;-77
2022/11/16 06:39:36;;;;;;;5.40;4.63;;;10.80;99.90;;;;;;5051840;28;20067;-77
2022/11/16 06:42:02;;;;;;;6.88;6.10;;;10.70;99.90;;;;;;5035147;28;20523;-78
2022/11/16 06:44:29;;;;;;;4.97;3.47;;;10.70;99.90;;;;;;5029142;28;20029;-77
2022/11/16 06:46:59;;;;;;;6.85;4.75;;;10.60;99.90;;;;;;5018402;28;20045;-77
2022/11/16 06:49:26;;;;;;;5.70;3.85;;;10.50;99.90;;;;;;5051019;28;20040;-79
2022/11/16 06:51:56;;;;;;;6.07;4.00;;;10.40;99.90;;;;;;5033620;28;20045;-79
2022/11/16 06:54:23;;;;;;;6.10;4.25;;;10.40;99.90;;;;;;5017900;28;20028;-79
2022/11/16 06:56:49;;;;;;;6.50;4.57;;;10.30;99.90;;;;;;5041241;28;20055;-78
2022/11/16 06:59:16;;;;;;;5.95;3.92;;;10.20;99.90;;;;;;5030524;28;20034;-79
2022/11/16 07:01:43;;;;;;;6.38;3.67;;;10.10;99.90;;;;;;5034600;28;20543;-78
2022/11/16 07:04:14;;;;;;;8.43;5.38;;;10.00;99.90;;;;;;5032894;28;20030;-79
2022/11/16 07:06:46;;;;;;;7.10;5.10;;;10.00;99.90;;;;;;5031472;28;20036;-79
2022/11/16 07:09:14;;;;;;;9.75;5.55;;;10.00;99.90;;;;;;5030638;28;20072;-78
2022/11/16 07:11:41;;;;;;;8.68;5.43;;;9.90;99.90;;;;;;5030851;28;20044;-79
2022/11/16 07:14:07;;;;;;;6.90;5.00;;;9.90;99.90;;;;;;5032496;28;20424;-79
2022/11/16 07:16:34;;;;;;;8.02;4.53;;;9.80;99.90;;;;;;5034563;28;20033;-79
2022/11/16 07:19:02;;;;;;;6.90;4.03;;;9.80;99.90;;;;;;5033437;28;20033;-79
2022/11/16 07:21:31;;;;;;;5.93;3.97;;;9.70;99.90;;;;;;5013904;28;20047;-81
2022/11/16 07:24:00;;;;;;;7.38;4.85;;;9.70;99.90;;;;;;5050515;28;20052;-79
2022/11/16 07:26:27;;;;;;;5.05;3.53;;;9.60;99.90;;;;;;5016990;28;20041;-80
2022/11/16 07:28:59;;;;;;;7.05;3.95;;;9.60;99.90;;;;;;5050514;28;20095;-80
2022/11/16 07:31:26;;;;;;;7.53;3.25;;;9.60;99.90;;;;;;5017035;28;20048;-78
2022/11/16 07:34:22;;;;;;;5.40;2.55;;;9.60;99.90;;;;;;5032881;28;20036;-78
2022/11/16 07:37:00;;;;;;;7.85;3.50;;;9.60;99.90;;;;;;5034904;28;20476;-78
2022/11/16 07:39:26;;;;;;;6.68;2.53;;;9.60;99.90;;;;;;5014175;28;20037;-77
2022/11/16 07:41:54;;;;;;;5.45;2.95;;;9.60;99.90;;;;;;5014368;28;20029;-76
2022/11/16 07:44:28;;;;;;;8.23;2.63;;;9.60;99.90;;;;;;5035216;28;20419;-75
2022/11/16 07:47:09;;;;;;;4.18;2.38;;;9.70;99.90;;;;;;5050387;28;20024;-74
2022/11/16 07:49:36;;;;;;;4.85;2.35;;;9.80;99.90;;;;;;5014444;28;20045;-76
2022/11/16 07:52:09;;;;;;;6.90;2.30;;;9.80;99.90;;;;;;5026152;28;20025;-77
2022/11/16 07:54:43;;;;;;;4.13;2.55;;;9.90;99.90;;;;;;5024172;28;20034;-77
2022/11/16 07:57:10;;;;;;;4.03;2.30;;;10.00;99.90;;;;;;5014115;28;20040;-77
2022/11/16 07:59:39;;;;;;;8.05;3.47;;;10.10;99.90;;;;;;5044527;28;20487;-78
2022/11/16 08:02:08;;;;;;;5.88;3.40;;;10.10;99.90;;;;;;5030187;28;20035;-75
2022/11/16 08:04:37;;;;;;;11.02;4.40;;;10.20;99.90;;;;;;5045089;28;20039;-75
2022/11/16 08:07:04;;;;;;;8.43;3.88;;;10.30;99.90;;;;;;5050488;28;20036;-75
2022/11/16 08:09:36;;;;;;;12.27;6.82;;;10.30;99.90;;;;;;5030958;28;20041;-76
2022/11/16 08:12:03;;;;;;;7.72;5.22;;;10.30;99.90;;;;;;5030153;28;20400;-76
2022/11/16 08:14:32;;;;;;;8.75;4.13;;;10.30;99.90;;;;;;5014848;28;20033;-75
2022/11/16 08:16:58;;;;;;;7.28;3.50;;;10.30;99.90;;;;;;5014418;28;20416;-76
2022/11/16 08:19:24;;;;;;;14.30;8.25;;;10.30;99.90;;;;;;5045676;28;20040;-77
2022/11/16 08:21:51;;;;;;;9.27;5.68;;;10.30;99.90;;;;;;5051135;28;20029;-77
2022/11/16 08:24:18;;;;;;;11.95;6.63;;;10.40;99.90;;;;;;5032471;28;20056;-77
2022/11/16 08:26:46;;;;;;;11.73;5.35;;;10.40;99.90;;;;;;5013548;28;20037;-76
2022/11/16 08:29:14;;;;;;;13.23;5.68;;;10.50;99.90;;;;;;5045695;28;20048;-75
2022/11/16 08:31:46;;;;;;;8.90;6.03;;;10.60;99.90;;;;;;5032744;28;20048;-77
2022/11/16 08:34:16;;;;;;;9.15;4.97;;;10.60;99.90;;;;;;5016965;28;20056;-76
2022/11/16 08:36:46;;;;;;;12.43;5.40;;;10.50;99.90;;;;;;5049334;28;20037;-76
2022/11/16 08:39:13;;;;;;;11.80;5.55;;;10.50;99.90;;;;;;5016951;28;20041;-76
2022/11/16 08:41:41;;;;;;;12.52;6.00;;;10.50;99.90;;;;;;5046278;28;20036;-76
2022/11/16 08:44:09;;;;;;;9.88;5.90;;;10.60;99.90;;;;;;5031103;28;20037;-76
2022/11/16 08:46:38;;;;;;;13.10;8.13;;;10.70;99.90;;;;;;5028450;28;20041;-75
2022/11/16 08:49:28;;;;;;;8.30;6.70;;;10.80;99.90;;;;;;5026752;28;20052;-76
2022/11/16 08:51:55;;;;;;;13.63;6.47;;;10.80;99.90;;;;;;5038144;28;20052;-75
2022/11/16 08:54:22;;;;;;;19.58;9.25;;;10.90;99.90;;;;;;5032170;28;20040;-75
2022/11/16 08:56:49;;;;;;;15.05;7.03;;;11.00;99.90;;;;;;5020843;28;20052;-76
2022/11/16 08:59:17;;;;;;;10.02;6.22;;;11.10;99.90;;;;;;5031563;28;20029;-75
2022/11/16 09:01:50;;;;;;;10.73;5.68;;;11.10;99.90;;;;;;5055269;28;20039;-75
2022/11/16 09:04:17;;;;;;;8.73;5.38;;;11.10;99.90;;;;;;5048005;28;20026;-76
2022/11/16 09:06:44;;;;;;;13.60;6.05;;;11.10;99.90;;;;;;5043732;28;20040;-77
2022/11/16 09:09:10;;;;;;;11.50;5.82;;;11.10;99.90;;;;;;5041793;28;20526;-77
2022/11/16 09:11:37;;;;;;;11.85;5.88;;;11.20;99.90;;;;;;5051053;28;20049;-77
2022/11/16 09:14:03;;;;;;;12.73;5.20;;;11.20;99.90;;;;;;5048129;28;20029;-77
2022/11/16 09:16:29;;;;;;;13.95;5.38;;;11.20;99.90;;;;;;5049657;28;20025;-74
2022/11/16 09:18:56;;;;;;;12.55;5.20;;;11.30;99.90;;;;;;5030408;28;20044;-75
2022/11/16 09:21:25;;;;;;;12.23;4.78;;;11.30;99.90;;;;;;5033721;28;20037;-77
2022/11/16 09:23:53;;;;;;;7.57;3.90;;;11.40;99.90;;;;;;5020797;28;20030;-76
2022/11/16 09:26:21;;;;;;;10.20;4.45;;;11.50;99.90;;;;;;5034868;28;20029;-76
2022/11/16 09:28:56;;;;;;;6.28;3.17;;;11.50;99.90;;;;;;5047045;28;20530;-77
2022/11/16 09:31:26;;;;;;;11.85;4.53;;;11.50;99.90;;;;;;5031976;28;20033;-76
2022/11/16 09:33:53;;;;;;;14.77;4.82;;;11.40;99.90;;;;;;5033437;28;20037;-76
2022/11/16 09:36:20;;;;;;;13.90;4.50;;;11.40;99.90;;;;;;5032866;28;20043;-76
2022/11/16 09:38:46;;;;;;;9.80;3.47;;;11.50;99.90;;;;;;5035687;28;20041;-74
2022/11/16 09:41:32;;;;;;;12.45;3.17;;;11.50;99.90;;;;;;5012860;28;20399;-76
2022/11/16 09:44:04;;;;;;;13.50;5.93;;;11.60;99.90;;;;;;5046767;28;20370;-75
2022/11/16 09:46:40;;;;;;;14.57;5.35;;;11.60;99.90;;;;;;5049915;28;20056;-76
2022/11/16 09:49:18;;;;;;;8.48;3.22;;;11.60;99.90;;;;;;5041380;28;20041;-77
2022/11/16 09:51:49;;;;;;;11.68;3.92;;;11.70;99.90;;;;;;5024156;28;20041;-76
2022/11/16 09:54:37;;;;;;;10.65;2.80;;;11.80;99.90;;;;;;5045946;28;20055;-75
2022/11/16 09:57:08;;;;;;;8.68;1.58;;;12.00;99.90;;;;;;5023594;28;20419;-75
2022/11/16 09:59:51;;;;;;;7.60;3.10;;;12.30;99.90;;;;;;5028210;28;20053;-75
2022/11/16 10:02:21;;;;;;;9.07;3.60;;;12.50;99.90;;;;;;5044373;28;20044;-76
2022/11/16 10:04:50;;;;;;;9.73;1.95;;;12.70;99.90;;;;;;5044943;28;20522;-77
2022/11/16 10:07:22;;;;;;;5.93;1.55;;;12.80;99.90;;;;;;5031178;28;20620;-75
2022/11/16 10:09:49;;;;;;;4.85;1.50;;;12.80;99.90;;;;;;5041785;28;20045;-75
2022/11/16 10:12:27;;;;;;;8.68;3.38;;;13.00;99.90;;;;;;5046788;28;20063;-75
2022/11/16 10:15:01;;;;;;;7.88;3.97;;;13.20;99.90;;;;;;5025473;28;20029;-75
2022/11/16 10:17:42;;;;;;;8.23;2.75;;;13.30;99.90;;;;;;5031006;28;20036;-74
2022/11/16 10:20:34;;;;;;;8.30;1.45;;;13.20;99.90;;;;;;5052352;28;20040;-74
2022/11/16 10:23:13;;;;;;;12.10;4.72;;;13.20;99.90;;;;;;5037630;28;20047;-74
2022/11/16 10:25:45;;;;;;;7.72;1.80;;;13.40;99.90;;;;;;5033974;28;20503;-75
2022/11/16 10:28:23;;;;;;;6.85;1.05;;;13.60;99.90;;;;;;5047986;28;20476;-77
2022/11/16 10:31:03;;;;;;;4.40;1.13;;;13.80;99.90;;;;;;5054457;28;20052;-78
2022/11/16 10:33:35;;;;;;;7.95;1.50;;;13.70;99.90;;;;;;5049066;28;20029;-78
2022/11/16 10:36:07;;;;;;;6.60;1.10;;;13.50;99.90;;;;;;5033084;28;20041;-78
2022/11/16 10:38:34;;;;;;;7.63;1.30;;;13.20;99.90;;;;;;5055724;28;20028;-76
2022/11/16 10:41:21;;;;;;;11.57;1.35;;;13.00;99.90;;;;;;5032640;28;20029;-78
2022/11/16 10:43:48;;;;;;;6.05;1.20;;;12.80;99.90;;;;;;5018295;28;20033;-78
2022/11/16 10:46:17;;;;;;;10.48;1.20;;;12.70;99.90;;;;;;5053466;28;20032;-79
2022/11/16 10:48:49;;;;;;;9.77;1.55;;;12.60;99.90;;;;;;5052511;28;20040;-81
2022/11/16 10:51:15;;;;;;;5.47;0.88;;;12.60;99.90;;;;;;5051307;28;20048;-79
2022/11/16 10:53:43;;;;;;;8.90;1.50;;;12.50;99.90;;;;;;5030147;28;20397;-79
2022/11/16 10:56:26;;;;;;;5.95;1.23;;;12.50;99.90;;;;;;5049443;28;20028;-78
2022/11/16 10:59:00;;;;;;;6.05;0.95;;;12.50;99.90;;;;;;5049431;28;20502;-80
2022/11/16 11:01:36;;;;;;;6.32;1.02;;;12.50;99.90;;;;;;5033753;28;20384;-80
2022/11/16 11:04:12;;;;;;;8.98;1.00;;;12.60;99.90;;;;;;5049196;28;20403;-79
2022/11/16 11:06:41;;;;;;;11.65;1.58;;;12.60;99.90;;;;;;5027312;28;20053;-78
2022/11/16 11:09:28;;;;;;;10.57;1.88;;;12.60;99.90;;;;;;5048281;28;20459;-78
2022/11/16 11:15:11;;;;;;;10.52;4.43;;;12.40;99.90;;;;;;5037418;28;20028;-77
2022/11/16 11:17:40;;;;;;;7.72;2.15;;;12.30;99.90;;;;;;5025287;28;20036;-77
2022/11/16 11:20:09;;;;;;;9.43;2.05;;;12.30;99.90;;;;;;5021383;28;20048;-78
2022/11/16 11:22:44;;;;;;;6.80;1.50;;;12.40;99.90;;;;;;5041587;28;20036;-76
2022/11/16 11:25:40;;;;;;;10.20;1.88;;;12.30;99.90;;;;;;5042431;28;20044;-77
2022/11/16 11:28:24;;;;;;;8.38;1.73;;;12.30;99.90;;;;;;5017341;28;20064;-76
2022/11/16 11:30:59;;;;;;;5.63;1.25;;;12.20;99.90;;;;;;5040932;28;20041;-79
2022/11/16 11:33:29;;;;;;;9.05;1.90;;;12.10;99.90;;;;;;5041475;28;20245;-79
2022/11/16 11:36:06;;;;;;;7.68;2.05;;;12.00;99.90;;;;;;5038985;28;20052;-78
2022/11/16 11:38:33;;;;;;;8.43;1.30;;;12.00;99.90;;;;;;5040683;28;20484;-75
2022/11/16 11:41:04;;;;;;;9.90;1.75;;;11.80;99.90;;;;;;5039152;28;20520;-78
2022/11/16 11:43:32;;;;;;;8.00;1.95;;;11.80;99.90;;;;;;5024311;28;20037;-76
2022/11/16 11:46:04;;;;;;;12.82;2.13;;;11.70;99.90;;;;;;5043091;28;20045;-80
2022/11/16 11:48:57;;;;;;;5.78;1.17;;;11.70;99.90;;;;;;5027240;28;20044;-78
2022/11/16 11:51:28;;;;;;;7.15;1.85;;;11.70;99.90;;;;;;5026333;28;20080;-77
2022/11/16 11:54:01;;;;;;;6.50;1.37;;;11.70;99.90;;;;;;5044043;28;20033;-77
2022/11/16 11:56:30;;;;;;;3.70;1.10;;;11.60;99.90;;;;;;5018081;28;20275;-79
2022/11/16 11:58:57;;;;;;;7.40;1.00;;;11.60;99.90;;;;;;5028314;28;20392;-78
2022/11/16 12:01:31;;;;;;;5.90;1.10;;;11.60;99.90;;;;;;5040848;28;20057;-77
2022/11/16 12:04:07;;;;;;;7.32;1.27;;;11.60;99.90;;;;;;5058799;28;20032;-75
2022/11/16 12:06:39;;;;;;;10.52;4.35;;;11.60;99.90;;;;;;5044306;28;20531;-75
2022/11/16 12:09:11;;;;;;;11.80;4.55;;;11.60;99.90;;;;;;5016262;28;20043;-75
2022/11/16 12:11:46;;;;;;;9.80;3.78;;;11.60;99.90;;;;;;5011140;28;20049;-75
2022/11/16 12:14:19;;;;;;;10.75;2.05;;;11.60;99.90;;;;;;5037984;28;20041;-74
2022/11/16 12:16:56;;;;;;;9.20;2.47;;;11.50;99.90;;;;;;5023600;28;20415;-77
2022/11/16 12:19:37;;;;;;;6.57;1.50;;;11.50;99.90;;;;;;5039422;28;20040;-78
2022/11/16 12:22:13;;;;;;;10.02;1.58;;;11.50;99.90;;;;;;5042293;28;20036;-77
2022/11/16 12:24:51;;;;;;;6.57;1.30;;;11.50;99.90;;;;;;5046004;28;20040;-75
2022/11/16 12:27:26;;;;;;;5.78;0.80;;;11.70;99.90;;;;;;5030476;28;20029;-78
2022/11/16 12:30:13;;;;;;;5.10;1.08;;;11.80;99.90;;;;;;5009589;28;20703;-80
2022/11/16 12:33:03;;;;;;;5.85;0.80;;;11.90;99.90;;;;;;5032294;28;20041;-78
2022/11/16 12:36:05;;;;;;;4.88;0.70;;;12.10;99.90;;;;;;5048190;28;20037;-75
2022/11/16 12:38:34;;;;;;;5.27;0.90;;;12.20;99.90;;;;;;5046598;28;20025;-78
2022/11/16 12:41:27;;;;;;;4.13;0.60;;;12.20;99.90;;;;;;5011940;28;20041;-80
2022/11/16 12:43:58;;;;;;;7.25;0.90;;;12.20;99.90;;;;;;5024884;28;21139;-80
2022/11/16 12:46:37;;;;;;;5.18;0.95;;;12.30;99.90;;;;;;5045659;28;20502;-78
2022/11/16 12:49:30;;;;;;;4.38;0.60;;;12.40;99.90;;;;;;5037758;28;20048;-75
2022/11/16 12:52:12;;;;;;;5.15;0.80;;;12.50;99.90;;;;;;5028862;28;20503;-79
2022/11/16 12:54:57;;;;;;;6.72;0.50;;;12.70;99.90;;;;;;5028673;28;20137;-79
2022/11/16 12:57:45;;;;;;;7.95;1.13;;;12.70;99.90;;;;;;5022285;28;20527;-78
2022/11/16 13:00:17;;;;;;;7.65;0.70;;;12.60;99.90;;;;;;5040857;28;20049;-80
2022/11/16 13:02:53;;;;;;;;;;;12.60;99.90;;;;;;5044466;28;20408;-79
2022/11/16 13:05:38;;;;;;;6.57;1.30;;;12.50;99.90;;;;;;5013395;28;19909;-79
2022/11/16 13:08:29;;;;;;;5.10;0.68;;;12.30;99.90;;;;;;5047165;28;20044;-80
2022/11/16 13:11:21;;;;;;;8.70;0.95;;;12.30;99.90;;;;;;5009526;28;20037;-78
2022/11/16 13:13:50;;;;;;;3.78;0.80;;;12.20;99.90;;;;;;5046065;28;20041;-80
2022/11/16 13:16:19;;;;;;;4.07;0.60;;;12.10;99.90;;;;;;5030168;28;20044;-79
2022/11/16 13:18:46;;;;;;;4.45;0.80;;;12.10;99.90;;;;;;5042065;28;20041;-80
2022/11/16 13:21:41;;;;;;;9.18;1.42;;;12.10;99.90;;;;;;5043764;28;20040;-79
2022/11/16 13:24:10;;;;;;;3.65;0.88;;;12.10;99.90;;;;;;5046079;28;20025;-80
2022/11/16 13:26:53;;;;;;;5.70;0.73;;;12.00;99.90;;;;;;5041929;28;20514;-78
2022/11/16 13:29:49;;;;;;;5.88;0.88;;;11.90;99.90;;;;;;5023210;28;20043;-78
2022/11/16 13:32:36;;;;;;;6.07;0.90;;;11.90;99.90;;;;;;5045660;28;20051;-79
2022/11/16 13:35:04;;;;;;;5.15;0.90;;;11.90;99.90;;;;;;5009953;28;20042;-79
2022/11/16 13:37:37;;;;;;;5.80;1.25;;;11.90;99.90;;;;;;5011039;28;20029;-79
2022/11/16 13:40:03;;;;;;;5.95;2.47;;;11.90;99.90;;;;;;5033453;28;20033;-79
2022/11/16 13:42:42;;;;;;;5.60;1.30;;;12.00;99.90;;;;;;5026940;28;20045;-78
2022/11/16 13:45:16;;;;;;;5.25;0.60;;;11.90;99.90;;;;;;5044883;28;20514;-77
2022/11/16 13:48:00;;;;;;;4.05;0.70;;;11.90;99.90;;;;;;5045224;28;20037;-77
2022/11/16 13:50:45;;;;;;;3.08;0.60;;;11.80;99.90;;;;;;5036397;28;20048;-76
2022/11/16 13:53:20;;;;;;;4.05;0.50;;;11.70;99.90;;;;;;5048005;28;20039;-76
2022/11/16 13:56:04;;;;;;;4.35;1.02;;;11.60;99.90;;;;;;5044070;28;20037;-76
2022/11/16 13:58:31;;;;;;;7.00;1.70;;;11.60;99.90;;;;;;5009305;28;20032;-76